sensor_id;sensor_type;location;lat;lon;timestamp;P1;durP1;ratioP1;P2;durP2;ratioP2
22332;SDS011;11334;36.986;-121.936;2023-07-20T00:02:03;3.67;;;3.35;;
22332;SDS011;11334;36.986;-121.936;2023-07-20T00:04:31;5.07;;;3.58;;
22332;SDS011;11334;36.986;-121.936;2023-07-20T00:06:57;4.35;;;3.60;;
22332;SDS011;11334;36.986;-121.936;2023-07-20T00:09:26;6.57;;;3.78;;
22332;SDS011;11334;36.986;-121.936;2023-07-20T00:11:52;6.38;;;3.67;;
22332;SDS011;11334;36.986;-121.936;2023-07-20T00:14:19;5.15;;;3.75;;
22332;SDS011;11334;36.986;-121.936;2023-07-20T00:16:45;4.93;;;3.30;;
22332;SDS011;11334;36.986;-121.936;2023-07-20T00:19:14;5.47;;;3.58;;
22332;SDS011;11334;36.986;-121.936;2023-07-20T00:21:41;5.45;;;3.47;;
22332;SDS011;11334;36.986;-121.936;2023-07-20T00:24:08;6.97;;;3.58;;
22332;SDS011;11334;36.986;-121.936;2023-07-20T00:26:34;4.55;;;3.30;;
22332;SDS011;11334;36.986;-121.936;2023-07-20T00:29:00;4.65;;;4.03;;
22332;SDS011;11334;36.986;-121.936;2023-07-20T00:31:27;4.65;;;3.45;;
22332;SDS011;11334;36.986;-121.936;2023-07-20T00:33:54;4.47;;;3.60;;
22332;SDS011;11334;36.986;-121.936;2023-07-20T00:36:21;5.80;;;3.60;;
22332;SDS011;11334;36.986;-121.936;2023-07-20T00:38:47;6.68;;;3.83;;
22332;SDS011;11334;36.986;-121.936;2023-07-20T00:41:13;5.32;;;3.88;;
22332;SDS011;11334;36.986;-121.936;2023-07-20T00:43:39;3.47;;;2.95;;
22332;SDS011;11334;36.986;-121.936;2023-07-20T00:46:06;5.95;;;3.35;;
22332;SDS011;11334;36.986;-121.936;2023-07-20T00:48:33;4.35;;;3.45;;
22332;SDS011;11334;36.986;-121.936;2023-07-20T00:51:00;4.03;;;3.60;;
22332;SDS011;11334;36.986;-121.936;2023-07-20T00:53:28;5.28;;;3.63;;
22332;SDS011;11334;36.986;-121.936;2023-07-20T00:55:54;4.22;;;3.72;;
22332;SDS011;11334;36.986;-121.936;2023-07-20T00:58:21;6.45;;;3.88;;
22332;SDS011;11334;36.986;-121.936;2023-07-20T01:00:48;4.93;;;3.35;;
22332;SDS011;11334;36.986;-121.936;2023-07-20T01:03:15;6.38;;;3.72;;
22332;SDS011;11334;36.986;-121.936;2023-07-20T01:06:03;4.47;;;3.47;;
22332;SDS011;11334;36.986;-121.936;2023-07-20T01:11:38;5.43;;;3.55;;
22332;SDS011;11334;36.986;-121.936;2023-07-20T01:14:14;7.03;;;3.92;;
22332;SDS011;11334;36.986;-121.936;2023-07-20T01:16:42;6.13;;;4.07;;
22332;SDS011;11334;36.986;-121.936;2023-07-20T01:19:08;6.57;;;4.20;;
22332;SDS011;11334;36.986;-121.936;2023-07-20T01:21:37;5.78;;;4.13;;
22332;SDS011;11334;36.986;-121.936;2023-07-20T01:30:34;5.68;;;3.63;;
22332;SDS011;11334;36.986;-121.936;2023-07-20T01:33:11;8.13;;;3.78;;
22332;SDS011;11334;36.986;-121.936;2023-07-20T01:35:41;9.23;;;4.65;;
22332;SDS011;11334;36.986;-121.936;2023-07-20T01:38:11;8.57;;;3.95;;
22332;SDS011;11334;36.986;-121.936;2023-07-20T01:40:39;9.50;;;4.13;;
22332;SDS011;11334;36.986;-121.936;2023-07-20T01:43:06;7.97;;;4.50;;
22332;SDS011;11334;36.986;-121.936;2023-07-20T01:45:32;6.50;;;4.22;;
22332;SDS011;11334;36.986;-121.936;2023-07-20T01:47:59;9.70;;;4.57;;
22332;SDS011;11334;36.986;-121.936;2023-07-20T01:50:25;7.97;;;4.53;;
22332;SDS011;11334;36.986;-121.936;2023-07-20T01:52:51;7.55;;;4.65;;
22332;SDS011;11334;36.986;-121.936;2023-07-20T01:55:17;10.90;;;4.22;;
22332;SDS011;11334;36.986;-121.936;2023-07-20T01:57:44;9.68;;;4.47;;
22332;SDS011;11334;36.986;-121.936;2023-07-20T02:00:10;8.35;;;4.20;;
22332;SDS011;11334;36.986;-121.936;2023-07-20T02:02:37;11.00;;;4.93;;
22332;SDS011;11334;36.986;-121.936;2023-07-20T02:05:03;8.20;;;4.22;;
22332;SDS011;11334;36.986;-121.936;2023-07-20T02:07:30;10.15;;;4.75;;
22332;SDS011;11334;36.986;-121.936;2023-07-20T02:09:57;10.18;;;4.70;;
22332;SDS011;11334;36.986;-121.936;2023-07-20T02:12:23;10.77;;;5.35;;
22332;SDS011;11334;36.986;-121.936;2023-07-20T02:14:49;13.48;;;5.40;;
22332;SDS011;11334;36.986;-121.936;2023-07-20T02:17:16;8.88;;;4.97;;
22332;SDS011;11334;36.986;-121.936;2023-07-20T02:19:43;11.50;;;5.07;;
22332;SDS011;11334;36.986;-121.936;2023-07-20T02:22:09;8.85;;;4.88;;
22332;SDS011;11334;36.986;-121.936;2023-07-20T02:24:36;10.55;;;5.47;;
22332;SDS011;11334;36.986;-121.936;2023-07-20T02:27:02;14.13;;;5.60;;
22332;SDS011;11334;36.986;-121.936;2023-07-20T02:29:28;11.73;;;5.45;;
22332;SDS011;11334;36.986;-121.936;2023-07-20T02:31:54;9.63;;;4.88;;
22332;SDS011;11334;36.986;-121.936;2023-07-20T02:34:21;12.00;;;5.10;;
22332;SDS011;11334;36.986;-121.936;2023-07-20T02:36:47;11.60;;;5.47;;
22332;SDS011;11334;36.986;-121.936;2023-07-20T02:39:13;12.80;;;5.03;;
22332;SDS011;11334;36.986;-121.936;2023-07-20T02:41:40;10.40;;;5.50;;
22332;SDS011;11334;36.986;-121.936;2023-07-20T02:44:07;9.95;;;4.97;;
22332;SDS011;11334;36.986;-121.936;2023-07-20T02:46:33;9.55;;;5.10;;
22332;SDS011;11334;36.986;-121.936;2023-07-20T02:49:00;13.20;;;5.93;;
22332;SDS011;11334;36.986;-121.936;2023-07-20T02:51:27;11.65;;;5.72;;
22332;SDS011;11334;36.986;-121.936;2023-07-20T02:53:53;14.60;;;6.32;;
22332;SDS011;11334;36.986;-121.936;2023-07-20T02:56:20;14.02;;;5.47;;
22332;SDS011;11334;36.986;-121.936;2023-07-20T02:58:48;9.85;;;5.53;;
22332;SDS011;11334;36.986;-121.936;2023-07-20T03:01:14;12.43;;;5.90;;
22332;SDS011;11334;36.986;-121.936;2023-07-20T03:03:41;13.38;;;6.70;;
22332;SDS011;11334;36.986;-121.936;2023-07-20T03:06:12;13.13;;;5.82;;
22332;SDS011;11334;36.986;-121.936;2023-07-20T03:08:42;11.60;;;5.95;;
22332;SDS011;11334;36.986;-121.936;2023-07-20T03:11:18;12.70;;;5.63;;
22332;SDS011;11334;36.986;-121.936;2023-07-20T03:13:45;15.23;;;6.38;;
22332;SDS011;11334;36.986;-121.936;2023-07-20T03:16:12;13.70;;;5.80;;
22332;SDS011;11334;36.986;-121.936;2023-07-20T03:18:43;16.27;;;6.03;;
22332;SDS011;11334;36.986;-121.936;2023-07-20T03:21:10;13.98;;;5.78;;
22332;SDS011;11334;36.986;-121.936;2023-07-20T03:23:37;11.85;;;5.85;;
22332;SDS011;11334;36.986;-121.936;2023-07-20T03:26:04;11.93;;;6.30;;
22332;SDS011;11334;36.986;-121.936;2023-07-20T03:28:30;14.95;;;5.95;;
22332;SDS011;11334;36.986;-121.936;2023-07-20T03:30:56;16.00;;;5.82;;
22332;SDS011;11334;36.986;-121.936;2023-07-20T03:33:27;16.55;;;6.45;;
22332;SDS011;11334;36.986;-121.936;2023-07-20T03:35:54;16.23;;;6.07;;
22332;SDS011;11334;36.986;-121.936;2023-07-20T03:38:22;12.65;;;5.65;;
22332;SDS011;11334;36.986;-121.936;2023-07-20T03:40:49;15.05;;;6.57;;
22332;SDS011;11334;36.986;-121.936;2023-07-20T03:43:16;12.70;;;6.68;;
22332;SDS011;11334;36.986;-121.936;2023-07-20T03:45:43;13.43;;;6.68;;
22332;SDS011;11334;36.986;-121.936;2023-07-20T03:48:11;12.68;;;6.93;;
22332;SDS011;11334;36.986;-121.936;2023-07-20T03:50:37;14.30;;;6.10;;
22332;SDS011;11334;36.986;-121.936;2023-07-20T03:53:04;11.20;;;6.63;;
22332;SDS011;11334;36.986;-121.936;2023-07-20T03:55:30;14.93;;;7.15;;
22332;SDS011;11334;36.986;-121.936;2023-07-20T03:57:56;13.30;;;7.18;;
22332;SDS011;11334;36.986;-121.936;2023-07-20T04:00:23;12.32;;;6.43;;
22332;SDS011;11334;36.986;-121.936;2023-07-20T04:02:49;12.65;;;7.13;;
22332;SDS011;11334;36.986;-121.936;2023-07-20T04:05:15;12.25;;;7.00;;
22332;SDS011;11334;36.986;-121.936;2023-07-20T04:07:42;15.40;;;7.72;;
22332;SDS011;11334;36.986;-121.936;2023-07-20T04:10:08;14.80;;;6.85;;
22332;SDS011;11334;36.986;-121.936;2023-07-20T04:12:35;12.43;;;6.53;;
22332;SDS011;11334;36.986;-121.936;2023-07-20T04:15:01;14.82;;;6.00;;
22332;SDS011;11334;36.986;-121.936;2023-07-20T04:17:29;12.40;;;6.63;;
22332;SDS011;11334;36.986;-121.936;2023-07-20T04:19:55;14.75;;;6.80;;
22332;SDS011;11334;36.986;-121.936;2023-07-20T04:22:21;12.70;;;6.57;;
22332;SDS011;11334;36.986;-121.936;2023-07-20T04:24:48;12.00;;;6.47;;
22332;SDS011;11334;36.986;-121.936;2023-07-20T04:27:14;13.27;;;6.30;;
22332;SDS011;11334;36.986;-121.936;2023-07-20T04:29:40;12.02;;;6.50;;
22332;SDS011;11334;36.986;-121.936;2023-07-20T04:32:06;12.75;;;6.93;;
22332;SDS011;11334;36.986;-121.936;2023-07-20T04:34:33;10.65;;;5.72;;
22332;SDS011;11334;36.986;-121.936;2023-07-20T04:37:03;15.80;;;6.43;;
22332;SDS011;11334;36.986;-121.936;2023-07-20T04:39:30;11.85;;;5.93;;
22332;SDS011;11334;36.986;-121.936;2023-07-20T04:41:56;12.57;;;6.85;;
22332;SDS011;11334;36.986;-121.936;2023-07-20T04:44:23;15.73;;;7.03;;
22332;SDS011;11334;36.986;-121.936;2023-07-20T04:46:49;14.27;;;6.55;;
22332;SDS011;11334;36.986;-121.936;2023-07-20T04:49:16;13.20;;;6.68;;
22332;SDS011;11334;36.986;-121.936;2023-07-20T04:51:42;12.02;;;6.45;;
22332;SDS011;11334;36.986;-121.936;2023-07-20T04:54:08;13.07;;;6.68;;
22332;SDS011;11334;36.986;-121.936;2023-07-20T04:56:34;14.55;;;6.22;;
22332;SDS011;11334;36.986;-121.936;2023-07-20T04:59:01;9.60;;;5.95;;
22332;SDS011;11334;36.986;-121.936;2023-07-20T05:01:27;15.93;;;7.18;;
22332;SDS011;11334;36.986;-121.936;2023-07-20T05:03:54;10.80;;;6.72;;
22332;SDS011;11334;36.986;-121.936;2023-07-20T05:06:20;14.32;;;6.55;;
22332;SDS011;11334;36.986;-121.936;2023-07-20T05:08:46;10.57;;;6.40;;
22332;SDS011;11334;36.986;-121.936;2023-07-20T05:11:12;11.85;;;6.40;;
22332;SDS011;11334;36.986;-121.936;2023-07-20T05:13:39;11.45;;;6.60;;
22332;SDS011;11334;36.986;-121.936;2023-07-20T05:16:05;11.50;;;6.13;;
22332;SDS011;11334;36.986;-121.936;2023-07-20T05:18:32;14.85;;;7.30;;
22332;SDS011;11334;36.986;-121.936;2023-07-20T05:20:58;12.13;;;6.50;;
22332;SDS011;11334;36.986;-121.936;2023-07-20T05:23:25;13.40;;;6.45;;
22332;SDS011;11334;36.986;-121.936;2023-07-20T05:25:55;8.73;;;6.70;;
22332;SDS011;11334;36.986;-121.936;2023-07-20T05:28:22;11.98;;;5.88;;
22332;SDS011;11334;36.986;-121.936;2023-07-20T05:30:50;11.60;;;6.95;;
22332;SDS011;11334;36.986;-121.936;2023-07-20T05:33:19;10.07;;;6.50;;
22332;SDS011;11334;36.986;-121.936;2023-07-20T05:35:46;14.23;;;6.88;;
22332;SDS011;11334;36.986;-121.936;2023-07-20T05:38:13;15.02;;;7.15;;
22332;SDS011;11334;36.986;-121.936;2023-07-20T05:40:40;13.52;;;7.75;;
22332;SDS011;11334;36.986;-121.936;2023-07-20T05:43:10;9.77;;;6.63;;
22332;SDS011;11334;36.986;-121.936;2023-07-20T05:45:36;12.10;;;6.78;;
22332;SDS011;11334;36.986;-121.936;2023-07-20T05:48:03;11.82;;;5.95;;
22332;SDS011;11334;36.986;-121.936;2023-07-20T05:50:29;14.18;;;7.00;;
22332;SDS011;11334;36.986;-121.936;2023-07-20T05:52:56;12.27;;;7.00;;
22332;SDS011;11334;36.986;-121.936;2023-07-20T05:55:22;12.85;;;6.63;;
22332;SDS011;11334;36.986;-121.936;2023-07-20T05:57:48;16.45;;;6.95;;
22332;SDS011;11334;36.986;-121.936;2023-07-20T06:00:15;12.43;;;7.50;;
22332;SDS011;11334;36.986;-121.936;2023-07-20T06:02:44;9.27;;;6.70;;
22332;SDS011;11334;36.986;-121.936;2023-07-20T06:05:10;13.00;;;7.13;;
22332;SDS011;11334;36.986;-121.936;2023-07-20T06:07:37;16.88;;;7.55;;
22332;SDS011;11334;36.986;-121.936;2023-07-20T06:10:04;16.98;;;7.57;;
22332;SDS011;11334;36.986;-121.936;2023-07-20T06:12:32;15.85;;;7.53;;
22332;SDS011;11334;36.986;-121.936;2023-07-20T06:15:02;16.75;;;6.78;;
22332;SDS011;11334;36.986;-121.936;2023-07-20T06:17:29;14.45;;;6.75;;
22332;SDS011;11334;36.986;-121.936;2023-07-20T06:19:55;14.45;;;7.13;;
22332;SDS011;11334;36.986;-121.936;2023-07-20T06:22:21;9.90;;;6.32;;
22332;SDS011;11334;36.986;-121.936;2023-07-20T06:24:48;11.55;;;7.20;;
22332;SDS011;11334;36.986;-121.936;2023-07-20T06:27:14;14.05;;;6.82;;
22332;SDS011;11334;36.986;-121.936;2023-07-20T06:29:41;10.95;;;6.53;;
22332;SDS011;11334;36.986;-121.936;2023-07-20T06:32:07;11.73;;;6.80;;
22332;SDS011;11334;36.986;-121.936;2023-07-20T06:34:34;9.07;;;6.53;;
22332;SDS011;11334;36.986;-121.936;2023-07-20T06:37:04;11.40;;;6.07;;
22332;SDS011;11334;36.986;-121.936;2023-07-20T06:39:30;11.73;;;6.28;;
22332;SDS011;11334;36.986;-121.936;2023-07-20T06:41:56;9.98;;;6.15;;
22332;SDS011;11334;36.986;-121.936;2023-07-20T06:44:22;9.98;;;6.22;;
22332;SDS011;11334;36.986;-121.936;2023-07-20T06:46:48;8.65;;;6.43;;
22332;SDS011;11334;36.986;-121.936;2023-07-20T06:49:24;11.98;;;5.97;;
22332;SDS011;11334;36.986;-121.936;2023-07-20T06:51:52;11.15;;;6.43;;
22332;SDS011;11334;36.986;-121.936;2023-07-20T06:54:18;9.52;;;5.95;;
22332;SDS011;11334;36.986;-121.936;2023-07-20T06:56:44;7.03;;;5.35;;
22332;SDS011;11334;36.986;-121.936;2023-07-20T06:59:10;12.05;;;5.88;;
22332;SDS011;11334;36.986;-121.936;2023-07-20T07:01:37;10.07;;;6.40;;
22332;SDS011;11334;36.986;-121.936;2023-07-20T07:04:04;11.18;;;6.13;;
22332;SDS011;11334;36.986;-121.936;2023-07-20T07:06:31;8.80;;;6.10;;
22332;SDS011;11334;36.986;-121.936;2023-07-20T07:08:58;9.60;;;6.05;;
22332;SDS011;11334;36.986;-121.936;2023-07-20T07:11:24;9.05;;;6.35;;
22332;SDS011;11334;36.986;-121.936;2023-07-20T07:13:50;10.23;;;6.25;;
22332;SDS011;11334;36.986;-121.936;2023-07-20T07:16:17;7.65;;;5.28;;
22332;SDS011;11334;36.986;-121.936;2023-07-20T07:18:46;10.82;;;6.65;;
22332;SDS011;11334;36.986;-121.936;2023-07-20T07:21:12;8.68;;;5.85;;
22332;SDS011;11334;36.986;-121.936;2023-07-20T07:23:39;10.15;;;6.05;;
22332;SDS011;11334;36.986;-121.936;2023-07-20T07:26:05;10.20;;;6.47;;
22332;SDS011;11334;36.986;-121.936;2023-07-20T07:28:31;7.40;;;5.70;;
22332;SDS011;11334;36.986;-121.936;2023-07-20T07:30:58;8.20;;;5.82;;
22332;SDS011;11334;36.986;-121.936;2023-07-20T07:33:24;7.72;;;5.45;;
22332;SDS011;11334;36.986;-121.936;2023-07-20T07:35:50;9.27;;;6.03;;
22332;SDS011;11334;36.986;-121.936;2023-07-20T07:38:18;9.27;;;6.10;;
22332;SDS011;11334;36.986;-121.936;2023-07-20T07:40:45;8.70;;;5.80;;
22332;SDS011;11334;36.986;-121.936;2023-07-20T07:43:12;8.38;;;6.47;;
22332;SDS011;11334;36.986;-121.936;2023-07-20T07:45:39;6.95;;;5.45;;
22332;SDS011;11334;36.986;-121.936;2023-07-20T07:48:06;8.23;;;6.03;;
22332;SDS011;11334;36.986;-121.936;2023-07-20T07:50:33;7.32;;;6.20;;
22332;SDS011;11334;36.986;-121.936;2023-07-20T07:52:59;10.40;;;5.88;;
22332;SDS011;11334;36.986;-121.936;2023-07-20T07:55:26;9.38;;;6.78;;
22332;SDS011;11334;36.986;-121.936;2023-07-20T07:57:53;10.27;;;6.13;;
22332;SDS011;11334;36.986;-121.936;2023-07-20T08:00:20;9.85;;;7.22;;
22332;SDS011;11334;36.986;-121.936;2023-07-20T08:02:46;10.77;;;6.30;;
22332;SDS011;11334;36.986;-121.936;2023-07-20T08:05:16;11.68;;;6.97;;
22332;SDS011;11334;36.986;-121.936;2023-07-20T08:07:42;10.23;;;6.63;;
22332;SDS011;11334;36.986;-121.936;2023-07-20T08:10:09;13.70;;;7.35;;
22332;SDS011;11334;36.986;-121.936;2023-07-20T08:12:35;12.55;;;7.18;;
22332;SDS011;11334;36.986;-121.936;2023-07-20T08:15:02;10.93;;;6.38;;
22332;SDS011;11334;36.986;-121.936;2023-07-20T08:17:29;13.93;;;7.65;;
22332;SDS011;11334;36.986;-121.936;2023-07-20T08:19:55;12.07;;;6.85;;
22332;SDS011;11334;36.986;-121.936;2023-07-20T08:22:22;10.88;;;6.43;;
22332;SDS011;11334;36.986;-121.936;2023-07-20T08:24:49;13.95;;;7.88;;
22332;SDS011;11334;36.986;-121.936;2023-07-20T08:27:15;12.95;;;7.43;;
22332;SDS011;11334;36.986;-121.936;2023-07-20T08:29:41;12.95;;;8.02;;
22332;SDS011;11334;36.986;-121.936;2023-07-20T08:32:08;14.70;;;8.40;;
22332;SDS011;11334;36.986;-121.936;2023-07-20T08:34:34;14.85;;;7.68;;
22332;SDS011;11334;36.986;-121.936;2023-07-20T08:37:00;12.35;;;8.10;;
22332;SDS011;11334;36.986;-121.936;2023-07-20T08:39:26;16.38;;;7.63;;
22332;SDS011;11334;36.986;-121.936;2023-07-20T08:41:53;13.15;;;7.53;;
22332;SDS011;11334;36.986;-121.936;2023-07-20T08:44:21;12.82;;;8.32;;
22332;SDS011;11334;36.986;-121.936;2023-07-20T08:46:48;15.43;;;8.70;;
22332;SDS011;11334;36.986;-121.936;2023-07-20T08:49:16;14.23;;;8.43;;
22332;SDS011;11334;36.986;-121.936;2023-07-20T08:51:44;12.30;;;8.80;;
22332;SDS011;11334;36.986;-121.936;2023-07-20T08:54:12;12.07;;;8.52;;
22332;SDS011;11334;36.986;-121.936;2023-07-20T08:56:40;12.50;;;8.80;;
22332;SDS011;11334;36.986;-121.936;2023-07-20T08:59:09;18.50;;;9.30;;
22332;SDS011;11334;36.986;-121.936;2023-07-20T09:01:36;18.08;;;8.68;;
22332;SDS011;11334;36.986;-121.936;2023-07-20T09:04:04;11.93;;;7.43;;
22332;SDS011;11334;36.986;-121.936;2023-07-20T09:06:31;14.20;;;7.90;;
22332;SDS011;11334;36.986;-121.936;2023-07-20T09:09:00;15.18;;;8.20;;
22332;SDS011;11334;36.986;-121.936;2023-07-20T09:11:26;11.82;;;6.97;;
22332;SDS011;11334;36.986;-121.936;2023-07-20T09:16:54;11.82;;;7.35;;
22332;SDS011;11334;36.986;-121.936;2023-07-20T09:19:21;14.80;;;8.57;;
22332;SDS011;11334;36.986;-121.936;2023-07-20T09:21:48;14.18;;;8.23;;
22332;SDS011;11334;36.986;-121.936;2023-07-20T09:24:17;10.65;;;7.43;;
22332;SDS011;11334;36.986;-121.936;2023-07-20T09:26:45;13.70;;;7.75;;
22332;SDS011;11334;36.986;-121.936;2023-07-20T09:29:19;12.55;;;7.78;;
22332;SDS011;11334;36.986;-121.936;2023-07-20T09:32:03;13.80;;;7.88;;
22332;SDS011;11334;36.986;-121.936;2023-07-20T09:34:31;11.90;;;7.75;;
22332;SDS011;11334;36.986;-121.936;2023-07-20T09:37:00;12.73;;;8.75;;
22332;SDS011;11334;36.986;-121.936;2023-07-20T09:39:27;12.80;;;8.55;;
22332;SDS011;11334;36.986;-121.936;2023-07-20T09:41:54;12.18;;;7.85;;
22332;SDS011;11334;36.986;-121.936;2023-07-20T09:44:27;9.30;;;7.20;;
22332;SDS011;11334;36.986;-121.936;2023-07-20T09:46:53;11.23;;;7.60;;
22332;SDS011;11334;36.986;-121.936;2023-07-20T09:49:21;12.85;;;8.10;;
22332;SDS011;11334;36.986;-121.936;2023-07-20T09:51:47;10.20;;;7.55;;
22332;SDS011;11334;36.986;-121.936;2023-07-20T09:54:15;11.30;;;7.50;;
22332;SDS011;11334;36.986;-121.936;2023-07-20T09:56:43;10.38;;;7.57;;
22332;SDS011;11334;36.986;-121.936;2023-07-20T09:59:09;10.60;;;7.65;;
22332;SDS011;11334;36.986;-121.936;2023-07-20T10:01:36;9.63;;;7.07;;
22332;SDS011;11334;36.986;-121.936;2023-07-20T10:04:09;10.43;;;7.55;;
22332;SDS011;11334;36.986;-121.936;2023-07-20T10:06:39;10.82;;;7.35;;
22332;SDS011;11334;36.986;-121.936;2023-07-20T10:09:08;9.98;;;7.13;;
22332;SDS011;11334;36.986;-121.936;2023-07-20T10:11:38;11.32;;;7.80;;
22332;SDS011;11334;36.986;-121.936;2023-07-20T10:14:09;12.45;;;7.63;;
22332;SDS011;11334;36.986;-121.936;2023-07-20T10:16:42;10.65;;;6.95;;
22332;SDS011;11334;36.986;-121.936;2023-07-20T10:19:17;8.98;;;7.30;;
22332;SDS011;11334;36.986;-121.936;2023-07-20T10:21:56;10.27;;;6.72;;
22332;SDS011;11334;36.986;-121.936;2023-07-20T10:24:27;10.68;;;7.60;;
22332;SDS011;11334;36.986;-121.936;2023-07-20T10:26:55;9.27;;;7.20;;
22332;SDS011;11334;36.986;-121.936;2023-07-20T10:29:21;9.77;;;7.10;;
22332;SDS011;11334;36.986;-121.936;2023-07-20T10:31:49;8.13;;;6.20;;
22332;SDS011;11334;36.986;-121.936;2023-07-20T10:34:16;10.18;;;6.25;;
22332;SDS011;11334;36.986;-121.936;2023-07-20T10:36:46;9.57;;;7.40;;
22332;SDS011;11334;36.986;-121.936;2023-07-20T10:39:25;10.40;;;6.72;;
22332;SDS011;11334;36.986;-121.936;2023-07-20T10:42:02;8.75;;;7.05;;
22332;SDS011;11334;36.986;-121.936;2023-07-20T10:44:33;11.95;;;7.32;;
22332;SDS011;11334;36.986;-121.936;2023-07-20T10:47:02;8.98;;;7.00;;
22332;SDS011;11334;36.986;-121.936;2023-07-20T10:49:33;7.47;;;6.60;;
22332;SDS011;11334;36.986;-121.936;2023-07-20T10:52:04;9.38;;;6.53;;
22332;SDS011;11334;36.986;-121.936;2023-07-20T10:57:21;13.00;;;7.93;;
22332;SDS011;11334;36.986;-121.936;2023-07-20T10:59:49;8.52;;;6.82;;
22332;SDS011;11334;36.986;-121.936;2023-07-20T11:02:19;10.75;;;6.72;;
22332;SDS011;11334;36.986;-121.936;2023-07-20T11:04:46;8.40;;;6.25;;
22332;SDS011;11334;36.986;-121.936;2023-07-20T11:07:17;10.88;;;6.40;;
22332;SDS011;11334;36.986;-121.936;2023-07-20T11:10:13;7.68;;;6.18;;
22332;SDS011;11334;36.986;-121.936;2023-07-20T11:13:15;11.23;;;6.90;;
22332;SDS011;11334;36.986;-121.936;2023-07-20T11:15:45;10.93;;;6.50;;
22332;SDS011;11334;36.986;-121.936;2023-07-20T11:18:27;10.13;;;6.90;;
22332;SDS011;11334;36.986;-121.936;2023-07-20T11:20:54;8.73;;;7.05;;
22332;SDS011;11334;36.986;-121.936;2023-07-20T11:23:20;8.93;;;6.50;;
22332;SDS011;11334;36.986;-121.936;2023-07-20T11:25:47;11.50;;;7.85;;
22332;SDS011;11334;36.986;-121.936;2023-07-20T11:28:14;11.15;;;6.78;;
22332;SDS011;11334;36.986;-121.936;2023-07-20T11:30:41;7.28;;;6.45;;
22332;SDS011;11334;36.986;-121.936;2023-07-20T11:33:10;7.68;;;6.25;;
22332;SDS011;11334;36.986;-121.936;2023-07-20T11:35:43;9.82;;;7.28;;
22332;SDS011;11334;36.986;-121.936;2023-07-20T11:38:13;8.65;;;7.28;;
22332;SDS011;11334;36.986;-121.936;2023-07-20T11:40:45;8.73;;;6.72;;
22332;SDS011;11334;36.986;-121.936;2023-07-20T11:43:12;9.63;;;7.40;;
22332;SDS011;11334;36.986;-121.936;2023-07-20T11:45:39;10.15;;;7.07;;
22332;SDS011;11334;36.986;-121.936;2023-07-20T11:48:05;10.13;;;7.25;;
22332;SDS011;11334;36.986;-121.936;2023-07-20T11:50:31;11.10;;;8.05;;
22332;SDS011;11334;36.986;-121.936;2023-07-20T11:53:03;8.38;;;6.80;;
22332;SDS011;11334;36.986;-121.936;2023-07-20T11:55:30;6.75;;;5.25;;
22332;SDS011;11334;36.986;-121.936;2023-07-20T11:58:01;6.75;;;5.28;;
22332;SDS011;11334;36.986;-121.936;2023-07-20T12:00:28;6.57;;;5.88;;
22332;SDS011;11334;36.986;-121.936;2023-07-20T12:02:54;6.47;;;5.22;;
22332;SDS011;11334;36.986;-121.936;2023-07-20T12:05:22;6.65;;;5.50;;
22332;SDS011;11334;36.986;-121.936;2023-07-20T12:07:49;5.93;;;5.13;;
22332;SDS011;11334;36.986;-121.936;2023-07-20T12:10:25;8.27;;;6.20;;
22332;SDS011;11334;36.986;-121.936;2023-07-20T12:12:52;10.13;;;6.95;;
22332;SDS011;11334;36.986;-121.936;2023-07-20T12:17:49;9.68;;;6.82;;
22332;SDS011;11334;36.986;-121.936;2023-07-20T12:20:30;8.25;;;5.97;;
22332;SDS011;11334;36.986;-121.936;2023-07-20T12:23:00;8.57;;;6.63;;
22332;SDS011;11334;36.986;-121.936;2023-07-20T12:25:37;11.30;;;6.85;;
22332;SDS011;11334;36.986;-121.936;2023-07-20T12:28:11;9.90;;;6.95;;
22332;SDS011;11334;36.986;-121.936;2023-07-20T12:30:39;10.52;;;7.15;;
22332;SDS011;11334;36.986;-121.936;2023-07-20T12:33:07;9.45;;;6.50;;
22332;SDS011;11334;36.986;-121.936;2023-07-20T12:35:33;7.43;;;6.30;;
22332;SDS011;11334;36.986;-121.936;2023-07-20T12:38:00;9.25;;;6.38;;
22332;SDS011;11334;36.986;-121.936;2023-07-20T12:40:26;8.45;;;6.75;;
22332;SDS011;11334;36.986;-121.936;2023-07-20T12:42:53;11.90;;;7.68;;
22332;SDS011;11334;36.986;-121.936;2023-07-20T12:45:19;9.07;;;6.68;;
22332;SDS011;11334;36.986;-121.936;2023-07-20T12:47:46;9.30;;;6.82;;
22332;SDS011;11334;36.986;-121.936;2023-07-20T12:50:13;10.10;;;7.18;;
22332;SDS011;11334;36.986;-121.936;2023-07-20T12:52:39;11.68;;;7.30;;
22332;SDS011;11334;36.986;-121.936;2023-07-20T12:55:06;8.90;;;7.43;;
22332;SDS011;11334;36.986;-121.936;2023-07-20T12:57:34;9.32;;;7.65;;
22332;SDS011;11334;36.986;-121.936;2023-07-20T13:00:02;9.68;;;7.00;;
22332;SDS011;11334;36.986;-121.936;2023-07-20T13:02:29;9.73;;;7.63;;
22332;SDS011;11334;36.986;-121.936;2023-07-20T13:04:56;9.65;;;7.65;;
22332;SDS011;11334;36.986;-121.936;2023-07-20T13:07:36;11.45;;;7.80;;
22332;SDS011;11334;36.986;-121.936;2023-07-20T13:10:04;12.90;;;8.07;;
22332;SDS011;11334;36.986;-121.936;2023-07-20T13:12:32;11.55;;;8.02;;
22332;SDS011;11334;36.986;-121.936;2023-07-20T13:15:02;12.80;;;7.97;;
22332;SDS011;11334;36.986;-121.936;2023-07-20T13:17:33;8.60;;;7.35;;
22332;SDS011;11334;36.986;-121.936;2023-07-20T13:20:01;11.73;;;7.68;;
22332;SDS011;11334;36.986;-121.936;2023-07-20T13:22:30;10.48;;;7.60;;
22332;SDS011;11334;36.986;-121.936;2023-07-20T13:24:56;9.02;;;7.07;;
22332;SDS011;11334;36.986;-121.936;2023-07-20T13:27:22;11.55;;;6.25;;
22332;SDS011;11334;36.986;-121.936;2023-07-20T13:29:51;6.85;;;5.97;;
22332;SDS011;11334;36.986;-121.936;2023-07-20T13:32:17;8.07;;;5.97;;
22332;SDS011;11334;36.986;-121.936;2023-07-20T13:34:44;6.55;;;5.30;;
22332;SDS011;11334;36.986;-121.936;2023-07-20T13:37:10;6.20;;;4.93;;
22332;SDS011;11334;36.986;-121.936;2023-07-20T13:39:37;5.80;;;5.20;;
22332;SDS011;11334;36.986;-121.936;2023-07-20T13:42:04;5.78;;;4.65;;
22332;SDS011;11334;36.986;-121.936;2023-07-20T13:44:31;5.97;;;4.70;;
22332;SDS011;11334;36.986;-121.936;2023-07-20T13:46:58;5.57;;;4.80;;
22332;SDS011;11334;36.986;-121.936;2023-07-20T13:49:25;5.68;;;4.57;;
22332;SDS011;11334;36.986;-121.936;2023-07-20T13:51:51;5.53;;;4.90;;
22332;SDS011;11334;36.986;-121.936;2023-07-20T13:54:17;5.70;;;4.82;;
22332;SDS011;11334;36.986;-121.936;2023-07-20T13:56:43;5.22;;;4.72;;
22332;SDS011;11334;36.986;-121.936;2023-07-20T13:59:10;6.00;;;4.65;;
22332;SDS011;11334;36.986;-121.936;2023-07-20T14:01:36;4.18;;;3.75;;
22332;SDS011;11334;36.986;-121.936;2023-07-20T14:04:02;4.72;;;3.92;;
22332;SDS011;11334;36.986;-121.936;2023-07-20T14:06:32;5.53;;;4.05;;
22332;SDS011;11334;36.986;-121.936;2023-07-20T14:08:59;5.55;;;4.15;;
22332;SDS011;11334;36.986;-121.936;2023-07-20T14:11:26;4.45;;;4.00;;
22332;SDS011;11334;36.986;-121.936;2023-07-20T14:13:52;4.10;;;3.70;;
22332;SDS011;11334;36.986;-121.936;2023-07-20T14:16:19;4.88;;;3.63;;
22332;SDS011;11334;36.986;-121.936;2023-07-20T14:18:46;5.13;;;3.70;;
22332;SDS011;11334;36.986;-121.936;2023-07-20T14:21:14;3.55;;;3.17;;
22332;SDS011;11334;36.986;-121.936;2023-07-20T14:23:41;3.53;;;3.22;;